createdAt,value
2018-12-16T00:01:57.346Z,76.80
2018-12-16T00:04:28.167Z,77.30
2018-12-16T00:06:58.903Z,77.60
2018-12-16T00:09:27.768Z,78.10
2018-12-16T00:11:56.508Z,77.30
2018-12-16T00:14:25.189Z,77.40
2018-12-16T00:16:53.916Z,77.60
2018-12-16T00:19:22.607Z,77.60
2018-12-16T00:21:51.316Z,77.40
2018-12-16T00:24:20.212Z,77.50
2018-12-16T00:27:00.331Z,77.80
2018-12-16T00:29:29.084Z,77.70
2018-12-16T00:31:57.872Z,77.50
2018-12-16T00:34:26.653Z,77.60
2018-12-16T00:36:55.423Z,78.00
2018-12-16T00:39:24.100Z,77.90
2018-12-16T00:41:52.826Z,78.00
2018-12-16T00:44:21.547Z,77.80
2018-12-16T00:46:50.323Z,78.10
2018-12-16T00:49:19.033Z,78.20
2018-12-16T00:51:54.126Z,77.60
2018-12-16T00:54:22.965Z,78.10
2018-12-16T00:56:51.778Z,77.90
2018-12-16T00:59:20.532Z,78.00
2018-12-16T01:01:49.381Z,77.90
2018-12-16T01:04:18.213Z,77.90
2018-12-16T01:06:46.959Z,78.20
2018-12-16T01:09:15.758Z,78.00
2018-12-16T01:11:45.507Z,78.00
2018-12-16T01:14:14.294Z,77.50
2018-12-16T01:16:43.085Z,78.00
2018-12-16T01:19:11.836Z,78.40
2018-12-16T01:21:40.630Z,78.10
2018-12-16T01:24:09.296Z,78.30
2018-12-16T01:26:38.479Z,78.60
2018-12-16T01:29:07.153Z,78.70
2018-12-16T01:31:35.837Z,78.50
2018-12-16T01:34:04.643Z,78.40
2018-12-16T01:36:33.457Z,79.00
2018-12-16T01:39:02.370Z,78.90
2018-12-16T01:41:33.105Z,79.10
2018-12-16T01:44:01.794Z,79.60
2018-12-16T01:46:30.540Z,80.00
2018-12-16T01:48:59.315Z,79.30
2018-12-16T01:51:27.998Z,78.90
2018-12-16T01:53:57.027Z,79.20
2018-12-16T01:56:25.703Z,79.10
2018-12-16T01:58:54.451Z,79.20
2018-12-16T02:01:23.281Z,78.70
2018-12-16T02:03:52.029Z,79.20
2018-12-16T02:06:20.873Z,79.60
2018-12-16T02:08:49.699Z,78.60
2018-12-16T02:11:18.568Z,78.80
2018-12-16T02:13:47.451Z,78.50
2018-12-16T02:16:16.277Z,78.30
2018-12-16T02:18:45.107Z,78.20
2018-12-16T02:21:13.843Z,78.10
2018-12-16T02:23:42.529Z,78.00
2018-12-16T02:26:11.192Z,77.80
2018-12-16T02:28:39.899Z,77.60
2018-12-16T02:31:08.844Z,77.70
2018-12-16T02:33:39.047Z,77.40
2018-12-16T02:36:08.697Z,77.50
2018-12-16T02:38:37.409Z,77.60
2018-12-16T02:41:06.219Z,77.60
2018-12-16T02:43:34.966Z,77.80
2018-12-16T02:46:03.813Z,77.70
2018-12-16T02:48:32.583Z,77.70
2018-12-16T02:51:01.351Z,77.50
2018-12-16T02:53:30.051Z,77.60
2018-12-16T02:55:59.199Z,77.60
2018-12-16T02:58:28.084Z,77.70
2018-12-16T03:00:56.820Z,77.50
2018-12-16T03:03:25.651Z,77.80
2018-12-16T03:05:54.408Z,78.20
2018-12-16T03:08:23.156Z,77.90
2018-12-16T03:10:51.920Z,78.20
2018-12-16T03:13:20.718Z,78.20
2018-12-16T03:15:49.519Z,78.20
2018-12-16T03:18:18.270Z,78.40
2018-12-16T03:20:46.947Z,78.10
2018-12-16T03:23:15.620Z,78.20
2018-12-16T03:25:44.493Z,78.10
2018-12-16T03:28:13.177Z,78.50
2018-12-16T03:30:41.985Z,78.60
2018-12-16T03:33:10.729Z,78.60
2018-12-16T03:35:39.534Z,78.50
2018-12-16T03:38:09.131Z,78.40
2018-12-16T03:40:37.875Z,78.40
2018-12-16T03:43:06.568Z,78.20
2018-12-16T03:45:35.321Z,78.30
2018-12-16T03:48:04.152Z,78.30
2018-12-16T03:50:33.107Z,78.20
2018-12-16T03:53:01.912Z,78.20
2018-12-16T03:55:30.747Z,78.20
2018-12-16T03:57:59.475Z,78.60
2018-12-16T04:00:28.142Z,78.20
2018-12-16T04:02:56.856Z,78.30
2018-12-16T04:05:25.561Z,78.10
2018-12-16T04:07:54.229Z,78.00
2018-12-16T04:10:23.223Z,78.30
2018-12-16T04:12:51.891Z,78.10
2018-12-16T04:15:20.800Z,78.10
2018-12-16T04:17:49.463Z,78.10
2018-12-16T04:20:18.204Z,79.10
2018-12-16T04:22:46.933Z,78.20
2018-12-16T04:25:15.672Z,78.20
2018-12-16T04:27:44.471Z,77.90
2018-12-16T04:30:13.208Z,78.20
2018-12-16T04:32:41.909Z,77.90
2018-12-16T04:35:10.584Z,77.80
2018-12-16T04:37:39.731Z,77.60
2018-12-16T04:40:08.531Z,77.90
2018-12-16T04:42:37.273Z,77.90
2018-12-16T04:45:06.471Z,77.80
2018-12-16T04:47:35.282Z,77.70
2018-12-16T04:50:04.480Z,77.60
2018-12-16T04:52:33.160Z,77.60
2018-12-16T04:55:01.926Z,78.10
2018-12-16T04:57:32.383Z,77.60
2018-12-16T05:00:01.065Z,77.90
2018-12-16T05:02:31.633Z,77.80
2018-12-16T05:05:00.312Z,77.60
2018-12-16T05:07:29.310Z,77.80
2018-12-16T05:10:08.189Z,77.90
2018-12-16T05:12:37.011Z,78.00
2018-12-16T05:15:05.862Z,78.00
2018-12-16T05:17:34.569Z,78.00
2018-12-16T05:20:03.383Z,78.00
2018-12-16T05:22:32.131Z,78.80
2018-12-16T05:25:00.845Z,78.10
2018-12-16T05:27:29.613Z,78.00
2018-12-16T05:29:58.464Z,77.90
2018-12-16T05:32:27.195Z,77.70
2018-12-16T05:34:56.179Z,77.80
2018-12-16T05:37:24.925Z,77.50
2018-12-16T05:39:53.730Z,77.40
2018-12-16T05:42:22.499Z,77.40
2018-12-16T05:44:51.229Z,77.50
2018-12-16T05:47:19.996Z,77.50
2018-12-16T05:49:48.846Z,77.40
2018-12-16T05:52:17.789Z,77.50
2018-12-16T05:54:46.509Z,77.40
2018-12-16T05:57:15.264Z,77.30
2018-12-16T05:59:44.004Z,77.40
2018-12-16T06:02:12.691Z,77.20
2018-12-16T06:04:41.403Z,77.30
2018-12-16T06:07:10.202Z,77.90
2018-12-16T06:09:39.089Z,76.80
2018-12-16T06:12:07.892Z,77.10
2018-12-16T06:14:36.684Z,76.70
2018-12-16T06:17:05.491Z,76.70
2018-12-16T06:19:34.207Z,76.50
2018-12-16T06:22:03.081Z,76.50
2018-12-16T06:24:31.827Z,76.40
2018-12-16T06:27:00.535Z,76.80
2018-12-16T06:29:29.458Z,76.70
2018-12-16T06:31:58.337Z,76.50
2018-12-16T06:34:27.137Z,76.40
2018-12-16T06:36:55.872Z,76.30
2018-12-16T06:39:24.563Z,76.30
2018-12-16T06:41:53.386Z,76.50
2018-12-16T06:44:22.229Z,76.30
2018-12-16T06:46:51.047Z,76.40
2018-12-16T06:49:19.745Z,76.40
2018-12-16T06:51:48.511Z,76.50
2018-12-16T06:54:17.212Z,76.50
2018-12-16T06:56:45.952Z,76.50
2018-12-16T06:59:14.758Z,76.40
2018-12-16T07:01:43.499Z,76.80
2018-12-16T07:04:12.246Z,76.80
2018-12-16T07:06:40.984Z,76.40
2018-12-16T07:09:10.565Z,76.50
2018-12-16T07:11:39.301Z,76.70
2018-12-16T07:14:08.139Z,76.70
2018-12-16T07:16:37.019Z,76.80
2018-12-16T07:19:05.749Z,76.40
2018-12-16T07:21:34.564Z,76.40
2018-12-16T07:24:09.026Z,76.50
2018-12-16T07:26:34.089Z,76.60
2018-12-16T07:29:03.018Z,76.40
2018-12-16T07:31:31.707Z,76.10
2018-12-16T07:34:00.500Z,76.20
2018-12-16T07:36:29.271Z,76.10
2018-12-16T07:38:57.965Z,76.10
2018-12-16T07:41:26.736Z,75.90
2018-12-16T07:43:55.646Z,75.90
2018-12-16T07:46:24.555Z,75.70
2018-12-16T07:48:54.298Z,75.80
2018-12-16T07:51:23.121Z,76.40
2018-12-16T07:53:51.872Z,75.80
2018-12-16T07:56:20.702Z,75.50
2018-12-16T07:58:49.530Z,75.60
2018-12-16T08:01:18.346Z,76.10
2018-12-16T08:03:47.249Z,75.40
2018-12-16T08:06:16.105Z,75.40
2018-12-16T08:08:44.883Z,75.20
2018-12-16T08:11:13.720Z,75.00
2018-12-16T08:13:42.456Z,74.30
2018-12-16T08:16:11.262Z,74.10
2018-12-16T08:18:41.056Z,74.00
2018-12-16T08:21:10.749Z,73.50
2018-12-16T08:23:39.569Z,73.10
2018-12-16T08:26:08.788Z,73.20
2018-12-16T08:28:37.600Z,72.50
2018-12-16T08:31:06.590Z,72.50
2018-12-16T08:33:35.558Z,72.40
2018-12-16T08:36:04.396Z,73.20
2018-12-16T08:38:33.224Z,71.50
2018-12-16T08:41:02.106Z,71.60
2018-12-16T08:43:30.836Z,71.80
2018-12-16T08:45:59.633Z,72.00
2018-12-16T08:48:35.156Z,71.80
2018-12-16T08:51:03.887Z,72.40
2018-12-16T08:53:32.572Z,70.90
2018-12-16T08:56:01.556Z,70.90
2018-12-16T08:58:30.371Z,69.70
2018-12-16T09:00:59.049Z,69.80
2018-12-16T09:03:27.946Z,70.80
2018-12-16T09:05:57.488Z,70.50
2018-12-16T09:08:26.179Z,70.30
2018-12-16T09:10:54.904Z,69.70
2018-12-16T09:13:23.858Z,70.30
2018-12-16T09:15:52.595Z,69.80
2018-12-16T09:18:28.200Z,69.90
2018-12-16T09:20:57.334Z,69.60
2018-12-16T09:23:26.056Z,69.60
2018-12-16T09:25:54.855Z,69.30
2018-12-16T09:28:23.533Z,69.00
2018-12-16T09:30:57.905Z,68.70
2018-12-16T09:33:22.877Z,68.40
2018-12-16T09:35:51.951Z,68.80
2018-12-16T09:38:20.663Z,68.90
2018-12-16T09:40:49.328Z,68.70
2018-12-16T09:43:18.109Z,68.70
2018-12-16T09:45:49.573Z,68.60
2018-12-16T09:48:17.592Z,69.10
2018-12-16T09:50:46.712Z,67.30
2018-12-16T09:53:15.461Z,67.20
2018-12-16T09:55:44.204Z,68.00
2018-12-16T09:58:13.128Z,68.10
2018-12-16T10:00:41.859Z,68.40
2018-12-16T10:03:13.669Z,69.10
2018-12-16T10:05:42.433Z,69.20
2018-12-16T10:08:11.580Z,68.00
2018-12-16T10:10:40.267Z,68.40
2018-12-16T10:13:09.057Z,66.70
2018-12-16T10:15:37.908Z,66.70
2018-12-16T10:18:06.639Z,66.10
2018-12-16T10:20:35.325Z,66.80
2018-12-16T10:23:04.133Z,66.70
2018-12-16T10:25:32.902Z,67.10
2018-12-16T10:28:01.574Z,67.50
2018-12-16T10:30:30.315Z,66.60
2018-12-16T10:32:59.082Z,66.40
2018-12-16T10:35:27.831Z,67.40
2018-12-16T10:37:56.540Z,67.40
2018-12-16T10:40:25.464Z,66.90
2018-12-16T10:42:54.202Z,67.10
2018-12-16T10:45:22.955Z,66.70
2018-12-16T10:47:51.650Z,66.70
2018-12-16T10:50:20.429Z,67.10
2018-12-16T10:52:49.270Z,67.80
2018-12-16T10:55:19.214Z,66.70
2018-12-16T10:57:47.999Z,67.00
2018-12-16T11:01:26.307Z,66.50
2018-12-16T11:03:55.057Z,67.40
2018-12-16T11:06:23.865Z,66.80
2018-12-16T11:08:53.177Z,67.00
2018-12-16T11:11:21.854Z,67.60
2018-12-16T11:13:50.591Z,67.00
2018-12-16T11:16:19.344Z,67.00
2018-12-16T11:18:48.343Z,66.80
2018-12-16T11:21:17.160Z,67.00
2018-12-16T11:23:45.844Z,66.50
2018-12-16T11:26:14.519Z,67.40
2018-12-16T11:28:43.272Z,67.80
2018-12-16T11:31:12.196Z,67.30
2018-12-16T11:33:47.624Z,67.30
2018-12-16T11:36:16.612Z,67.90
2018-12-16T11:38:45.399Z,67.80
2018-12-16T11:41:14.235Z,68.10
2018-12-16T11:43:42.943Z,67.80
2018-12-16T11:46:12.166Z,67.70
2018-12-16T11:48:40.967Z,67.70
2018-12-16T11:51:09.653Z,68.20
2018-12-16T11:53:38.481Z,67.90
2018-12-16T11:56:07.255Z,67.70
2018-12-16T11:58:36.026Z,67.80
2018-12-16T12:01:04.853Z,67.40
2018-12-16T12:03:34.102Z,67.10
2018-12-16T12:06:04.790Z,67.50
2018-12-16T12:08:33.456Z,67.50
2018-12-16T12:11:02.135Z,67.30
2018-12-16T12:13:30.848Z,68.00
2018-12-16T12:15:59.665Z,67.80
2018-12-16T12:18:28.367Z,67.00
2018-12-16T12:20:57.183Z,67.80
2018-12-16T12:23:25.933Z,67.50
2018-12-16T12:25:54.824Z,67.40
2018-12-16T12:28:23.974Z,67.50
2018-12-16T12:30:52.650Z,67.80
2018-12-16T12:33:21.538Z,67.80
2018-12-16T12:35:50.311Z,67.10
2018-12-16T12:38:19.079Z,67.40
2018-12-16T12:40:47.848Z,67.40
2018-12-16T12:43:16.571Z,67.40
2018-12-16T12:45:45.354Z,67.80
2018-12-16T12:48:14.171Z,67.10
2018-12-16T12:50:42.982Z,67.90
2018-12-16T12:53:13.063Z,68.10
2018-12-16T12:55:41.854Z,67.80
2018-12-16T12:58:10.643Z,67.50
2018-12-16T13:00:39.367Z,67.50
2018-12-16T13:03:08.248Z,67.80
2018-12-16T13:05:37.976Z,67.40
2018-12-16T13:08:06.712Z,67.40
2018-12-16T13:10:35.801Z,67.30
2018-12-16T13:13:04.603Z,67.00
2018-12-16T13:15:33.295Z,67.60
2018-12-16T13:18:02.055Z,67.50
2018-12-16T13:20:30.804Z,67.60
2018-12-16T13:22:59.656Z,68.50
2018-12-16T13:26:07.517Z,66.90
2018-12-16T13:28:36.219Z,66.70
2018-12-16T13:31:04.989Z,67.00
2018-12-16T13:33:33.658Z,67.30
2018-12-16T13:36:02.327Z,67.50
2018-12-16T13:38:31.044Z,67.30
2018-12-16T13:40:59.949Z,67.30
2018-12-16T13:43:28.933Z,67.20
2018-12-16T13:45:57.681Z,67.50
2018-12-16T13:48:26.365Z,67.50
2018-12-16T13:50:55.048Z,67.60
2018-12-16T13:53:23.860Z,67.40
2018-12-16T13:55:52.654Z,67.90
2018-12-16T13:58:21.476Z,67.90
2018-12-16T14:00:50.225Z,67.60
2018-12-16T14:03:18.979Z,68.10
2018-12-16T14:05:47.744Z,67.90
2018-12-16T14:08:16.524Z,67.80
2018-12-16T14:10:45.202Z,67.90
2018-12-16T14:13:13.952Z,68.10
2018-12-16T14:15:43.544Z,69.50
2018-12-16T14:18:12.369Z,67.80
2018-12-16T14:20:41.117Z,67.90
2018-12-16T14:23:09.819Z,67.70
2018-12-16T14:25:38.634Z,67.90
2018-12-16T14:28:07.335Z,67.80
2018-12-16T14:30:36.020Z,67.90
2018-12-16T14:33:04.774Z,67.90
2018-12-16T14:35:33.643Z,68.10
2018-12-16T14:38:02.549Z,68.20
2018-12-16T14:40:31.296Z,68.00
2018-12-16T14:43:00.013Z,68.10
2018-12-16T14:45:28.701Z,68.10
2018-12-16T14:47:58.529Z,68.50
2018-12-16T14:50:27.996Z,68.50
2018-12-16T14:52:57.220Z,68.40
2018-12-16T14:55:25.895Z,68.50
2018-12-16T14:57:54.664Z,68.60
2018-12-16T15:00:23.408Z,68.60
2018-12-16T15:02:52.113Z,68.70
2018-12-16T15:05:21.787Z,68.70
2018-12-16T15:07:50.535Z,68.90
2018-12-16T15:10:19.387Z,68.80
2018-12-16T15:12:48.155Z,68.70
2018-12-16T15:15:17.772Z,69.00
2018-12-16T15:17:46.552Z,68.70
2018-12-16T15:20:15.370Z,69.00
2018-12-16T15:22:44.188Z,69.10
2018-12-16T15:25:13.885Z,69.00
2018-12-16T15:27:42.569Z,69.40
2018-12-16T15:30:11.529Z,69.10
2018-12-16T15:32:40.371Z,69.20
2018-12-16T15:35:09.245Z,69.00
2018-12-16T15:37:38.161Z,68.80
2018-12-16T15:40:07.636Z,68.90
2018-12-16T15:42:36.460Z,69.10
2018-12-16T15:45:07.351Z,68.80
2018-12-16T15:47:36.120Z,69.20
2018-12-16T15:50:05.945Z,69.30
2018-12-16T15:52:34.747Z,69.40
2018-12-16T15:55:04.263Z,70.00
2018-12-16T15:57:33.046Z,69.40
2018-12-16T16:00:01.929Z,69.60
2018-12-16T16:02:31.530Z,69.70
2018-12-16T16:05:00.373Z,70.60
2018-12-16T16:07:35.979Z,70.10
2018-12-16T16:10:05.613Z,70.20
2018-12-16T16:12:34.387Z,70.10
2018-12-16T16:15:03.232Z,70.10
2018-12-16T16:17:32.205Z,70.20
2018-12-16T16:20:00.883Z,70.20
2018-12-16T16:22:30.955Z,70.00
2018-12-16T16:24:59.633Z,70.00
2018-12-16T16:27:28.331Z,69.70
2018-12-16T16:29:57.088Z,70.00
2018-12-16T16:32:25.807Z,70.20
2018-12-16T16:34:54.680Z,70.10
2018-12-16T16:37:23.439Z,70.60
2018-12-16T16:39:52.211Z,70.00
2018-12-16T16:42:20.912Z,70.00
2018-12-16T16:44:49.715Z,69.80
2018-12-16T16:47:18.660Z,69.80
2018-12-16T16:49:47.495Z,69.90
2018-12-16T16:52:16.197Z,70.10
2018-12-16T16:54:45.578Z,70.00
2018-12-16T16:57:14.332Z,69.80
2018-12-16T16:59:43.199Z,69.70
2018-12-16T17:02:11.942Z,69.70
2018-12-16T17:04:40.739Z,69.80
2018-12-16T17:07:09.419Z,70.00
2018-12-16T17:09:38.101Z,69.80
2018-12-16T17:12:06.927Z,70.00
2018-12-16T17:14:35.592Z,69.80
2018-12-16T17:17:04.530Z,69.80
2018-12-16T17:19:33.272Z,69.80
2018-12-16T17:22:02.105Z,70.00
2018-12-16T17:24:31.961Z,70.10
2018-12-16T17:27:00.708Z,70.10
2018-12-16T17:29:29.512Z,71.00
2018-12-16T17:31:58.201Z,70.90
2018-12-16T17:34:26.884Z,70.60
2018-12-16T17:36:55.665Z,70.80
2018-12-16T17:39:24.399Z,70.70
2018-12-16T17:41:53.148Z,70.30
2018-12-16T17:44:21.900Z,70.40
2018-12-16T17:46:51.094Z,70.40
2018-12-16T17:49:19.794Z,70.40
2018-12-16T17:51:48.532Z,70.70
2018-12-16T17:54:17.563Z,70.80
2018-12-16T17:56:46.311Z,70.80
2018-12-16T17:59:17.971Z,71.00
2018-12-16T18:01:46.956Z,72.10
2018-12-16T18:04:16.127Z,70.00
2018-12-16T18:06:44.844Z,69.80
2018-12-16T18:09:13.707Z,70.30
2018-12-16T18:11:42.407Z,70.80
2018-12-16T18:14:12.011Z,71.10
2018-12-16T18:16:41.739Z,71.30
2018-12-16T18:19:10.425Z,71.40
2018-12-16T18:21:39.230Z,71.50
2018-12-16T18:24:08.045Z,72.60
2018-12-16T18:26:36.751Z,71.80
2018-12-16T18:29:05.503Z,72.10
2018-12-16T18:31:34.240Z,72.30
2018-12-16T18:34:03.139Z,72.30
2018-12-16T18:36:31.842Z,72.30
2018-12-16T18:39:00.659Z,72.70
2018-12-16T18:41:31.273Z,72.40
2018-12-16T18:44:00.197Z,72.40
2018-12-16T18:46:29.048Z,72.80
2018-12-16T18:48:57.735Z,72.90
2018-12-16T18:51:26.475Z,73.00
2018-12-16T18:53:55.232Z,73.20
2018-12-16T18:56:24.035Z,73.00
2018-12-16T18:58:52.775Z,73.40
2018-12-16T19:01:21.480Z,74.10
2018-12-16T19:03:50.151Z,73.60
2018-12-16T19:06:18.823Z,74.10
2018-12-16T19:08:47.505Z,74.30
2018-12-16T19:11:16.793Z,74.60
2018-12-16T19:13:45.534Z,73.90
2018-12-16T19:16:14.272Z,74.80
2018-12-16T19:18:43.297Z,74.90
2018-12-16T19:21:12.218Z,75.30
2018-12-16T19:23:41.155Z,75.10
2018-12-16T19:26:09.855Z,75.40
2018-12-16T19:28:38.633Z,75.70
2018-12-16T19:31:07.479Z,75.80
2018-12-16T19:33:36.279Z,75.90
2018-12-16T19:36:04.975Z,76.20
2018-12-16T19:38:34.702Z,76.30
2018-12-16T19:41:03.551Z,76.20
2018-12-16T19:43:34.168Z,76.20
2018-12-16T19:46:03.079Z,76.20
2018-12-16T19:48:31.859Z,76.30
2018-12-16T19:51:00.690Z,75.80
2018-12-16T19:53:29.507Z,75.60
2018-12-16T19:55:58.208Z,76.30
2018-12-16T19:58:27.279Z,76.90
2018-12-16T20:00:56.133Z,77.00
2018-12-16T20:03:24.983Z,76.90
2018-12-16T20:05:59.284Z,77.00
2018-12-16T20:08:28.231Z,76.90
2018-12-16T20:10:56.923Z,76.90
2018-12-16T20:13:25.591Z,76.80
2018-12-16T20:16:01.287Z,77.20
2018-12-16T20:18:25.218Z,76.80
2018-12-16T20:20:53.977Z,77.10
2018-12-16T20:23:22.683Z,77.20
2018-12-16T20:25:51.436Z,77.00
2018-12-16T20:28:20.116Z,77.00
2018-12-16T20:30:48.862Z,77.20
2018-12-16T20:33:17.558Z,77.30
2018-12-16T20:35:47.196Z,77.00
2018-12-16T20:38:16.282Z,76.90
2018-12-16T20:40:45.028Z,77.10
2018-12-16T20:43:13.730Z,77.00
2018-12-16T20:45:42.429Z,76.90
2018-12-16T20:48:11.122Z,76.80
2018-12-16T20:50:39.867Z,76.30
2018-12-16T20:53:08.781Z,76.90
2018-12-16T20:55:37.471Z,77.50
2018-12-16T20:58:06.163Z,77.10
2018-12-16T21:00:34.844Z,77.10
2018-12-16T21:03:03.667Z,77.30
2018-12-16T21:05:32.526Z,77.10
2018-12-16T21:08:01.195Z,77.00
2018-12-16T21:10:30.030Z,77.00
2018-12-16T21:13:04.309Z,76.90
2018-12-16T21:15:38.391Z,77.00
2018-12-16T21:18:12.459Z,76.80
2018-12-16T21:20:42.184Z,77.10
2018-12-16T21:23:10.957Z,76.90
2018-12-16T21:25:39.686Z,77.00
2018-12-16T21:28:08.401Z,77.20
2018-12-16T21:30:37.341Z,76.90
2018-12-16T21:33:06.140Z,77.10
2018-12-16T21:35:34.931Z,78.00
2018-12-16T21:38:03.787Z,77.00
2018-12-16T21:40:32.456Z,77.20
2018-12-16T21:43:01.162Z,77.20
2018-12-16T21:45:30.147Z,77.00
2018-12-16T21:47:58.864Z,77.30
2018-12-16T21:50:28.469Z,77.30
2018-12-16T21:52:57.256Z,77.30
2018-12-16T21:55:25.942Z,77.10
2018-12-16T21:57:54.615Z,78.00
2018-12-16T22:00:23.388Z,77.20
2018-12-16T22:02:52.087Z,77.20
2018-12-16T22:05:25.163Z,77.30
2018-12-16T22:07:54.142Z,77.50
2018-12-16T22:10:22.815Z,77.40
2018-12-16T22:12:51.591Z,77.10
2018-12-16T22:15:20.328Z,77.10
2018-12-16T22:17:49.352Z,77.20
2018-12-16T22:20:18.099Z,76.90
2018-12-16T22:22:47.767Z,77.20
2018-12-16T22:25:16.518Z,77.40
2018-12-16T22:27:45.265Z,77.50
2018-12-16T22:30:14.134Z,77.40
2018-12-16T22:32:42.844Z,77.30
2018-12-16T22:35:11.648Z,77.40
2018-12-16T22:37:40.340Z,77.50
2018-12-16T22:40:09.209Z,77.20
2018-12-16T22:42:37.885Z,77.20
2018-12-16T22:45:07.684Z,77.20
2018-12-16T22:47:36.354Z,77.00
2018-12-16T22:50:05.806Z,77.40
2018-12-16T22:52:34.471Z,77.20
2018-12-16T22:55:03.272Z,77.90
2018-12-16T22:57:32.002Z,77.50
2018-12-16T23:00:00.667Z,77.00
2018-12-16T23:02:31.415Z,77.10
2018-12-16T23:05:00.116Z,77.10
2018-12-16T23:07:28.815Z,77.20
2018-12-16T23:09:57.585Z,77.10
2018-12-16T23:12:26.419Z,77.30
2018-12-16T23:14:55.091Z,77.40
2018-12-16T23:17:23.847Z,77.30
2018-12-16T23:19:58.952Z,77.20
2018-12-16T23:22:27.662Z,77.40
2018-12-16T23:24:56.606Z,77.40
2018-12-16T23:27:25.387Z,77.50
2018-12-16T23:29:54.123Z,77.70
2018-12-16T23:32:22.845Z,77.50
2018-12-16T23:34:51.573Z,77.10
2018-12-16T23:37:20.275Z,77.50
2018-12-16T23:39:49.043Z,77.60
2018-12-16T23:42:18.194Z,77.60
2018-12-16T23:44:47.008Z,77.50
2018-12-16T23:47:15.696Z,77.50
2018-12-16T23:49:44.509Z,77.60
2018-12-16T23:52:13.415Z,77.60
2018-12-16T23:54:42.142Z,77.60
2018-12-16T23:57:10.841Z,77.80
2018-12-16T23:59:39.901Z,78.30
